Time;durP1;ratioP1;P1;durP2;ratioP2;P2;SDS_P1;SDS_P2;PMS_P1;PMS_P2;Temp;Humidity;BMP_temperature;BMP_pressure;BME280_temperature;BME280_humidity;BME280_pressure;Samples;Min_cycle;Max_cycle;Signal;HPM_P1;HPM_P2
2022/12/14 05:01:54;;;;;;;23.57;14.00;;;0.10;99.90;;;;;;5349993;23;20512;-72
2022/12/14 05:04:32;;;;;;;19.40;12.87;;;0.10;99.90;;;;;;4929408;29;20482;-73
2022/12/14 05:07:06;;;;;;;17.90;12.20;;;0.10;99.90;;;;;;4928289;29;20795;-73
2022/12/14 05:09:38;;;;;;;21.00;12.70;;;0.20;99.90;;;;;;4928903;29;20443;-73
2022/12/14 05:12:10;;;;;;;23.80;14.10;;;0.20;99.90;;;;;;4944297;29;20536;-72
2022/12/14 05:14:40;;;;;;;22.00;13.20;;;0.30;99.90;;;;;;4948006;29;20477;-73
2022/12/14 05:17:08;;;;;;;20.10;13.07;;;0.30;99.90;;;;;;4947650;29;20445;-73
2022/12/14 05:19:35;;;;;;;18.73;12.00;;;0.30;99.90;;;;;;4947910;29;20841;-73
2022/12/14 05:22:06;;;;;;;21.40;13.07;;;0.30;99.90;;;;;;4948423;28;20993;-73
2022/12/14 05:24:33;;;;;;;20.97;12.70;;;0.30;99.90;;;;;;4949091;29;20481;-74
2022/12/14 05:27:00;;;;;;;21.97;13.47;;;0.30;99.90;;;;;;4947967;28;20526;-73
2022/12/14 05:29:27;;;;;;;22.97;13.40;;;0.30;99.90;;;;;;4947767;29;20509;-71
2022/12/14 05:31:54;;;;;;;21.50;12.90;;;0.30;99.90;;;;;;4946948;28;20842;-72
2022/12/14 05:34:22;;;;;;;20.30;13.50;;;0.30;99.90;;;;;;4948027;29;20457;-72
2022/12/14 05:36:49;;;;;;;21.80;13.87;;;0.30;99.90;;;;;;4947149;29;20954;-73
2022/12/14 05:39:16;;;;;;;19.53;12.50;;;0.30;99.90;;;;;;4947844;29;20450;-72
2022/12/14 05:41:43;;;;;;;24.50;14.63;;;0.40;99.90;;;;;;4948323;28;20556;-72
2022/12/14 05:44:11;;;;;;;21.80;12.93;;;0.40;99.90;;;;;;4947510;29;21043;-72
2022/12/14 05:46:38;;;;;;;21.67;12.90;;;0.40;99.90;;;;;;4946951;28;20457;-73
2022/12/14 05:49:04;;;;;;;21.13;13.60;;;0.40;99.90;;;;;;4948266;29;20476;-72
2022/12/14 05:51:33;;;;;;;20.60;13.27;;;0.40;99.90;;;;;;4948388;28;20505;-73
2022/12/14 05:53:59;;;;;;;21.90;14.13;;;0.30;99.90;;;;;;4948100;29;20945;-73
2022/12/14 05:56:26;;;;;;;20.53;13.20;;;0.40;99.90;;;;;;4947569;29;20455;-73
2022/12/14 05:58:53;;;;;;;27.47;13.27;;;0.30;99.90;;;;;;4948480;29;20461;-75
2022/12/14 06:01:20;;;;;;;25.23;14.13;;;0.30;99.90;;;;;;4954890;28;20539;-73
2022/12/14 06:03:47;;;;;;;22.37;13.60;;;0.30;99.90;;;;;;4967371;28;20457;-73
2022/12/14 06:06:14;;;;;;;20.30;13.10;;;0.30;99.90;;;;;;4967357;28;21328;-73
2022/12/14 06:08:44;;;;;;;25.20;14.40;;;0.30;99.90;;;;;;4967308;28;20553;-66
2022/12/14 06:11:13;;;;;;;23.97;13.87;;;0.30;99.90;;;;;;4966602;28;21048;-68
2022/12/14 06:13:41;;;;;;;22.10;14.10;;;0.30;99.90;;;;;;4967131;28;20452;-74
2022/12/14 06:16:13;;;;;;;22.50;13.40;;;0.30;99.90;;;;;;4967011;28;20448;-74
2022/12/14 06:18:44;;;;;;;20.80;13.00;;;0.30;99.90;;;;;;4948682;28;20460;-74
2022/12/14 06:21:13;;;;;;;26.00;14.80;;;0.40;99.90;;;;;;4948730;29;20993;-74
2022/12/14 06:23:42;;;;;;;28.00;14.70;;;0.40;99.90;;;;;;4948863;28;20465;-75
2022/12/14 06:26:09;;;;;;;24.70;15.57;;;0.40;99.90;;;;;;4948111;29;20491;-75
2022/12/14 06:28:37;;;;;;;19.30;13.10;;;0.40;99.90;;;;;;4948100;29;20477;-74
2022/12/14 06:31:05;;;;;;;27.43;16.30;;;0.40;99.90;;;;;;4938950;29;20494;-73
2022/12/14 06:33:33;;;;;;;24.20;13.63;;;0.40;99.90;;;;;;4928769;29;20970;-74
2022/12/14 06:36:01;;;;;;;22.23;14.00;;;0.40;99.90;;;;;;4927678;29;20451;-74
2022/12/14 06:38:28;;;;;;;23.03;13.33;;;0.40;99.90;;;;;;4927986;29;21022;-74
2022/12/14 06:40:56;;;;;;;21.67;13.97;;;0.50;99.90;;;;;;4938478;28;20477;-74
2022/12/14 06:43:25;;;;;;;25.37;15.23;;;0.50;99.90;;;;;;4948930;28;20476;-74
2022/12/14 06:45:52;;;;;;;24.13;14.10;;;0.50;99.90;;;;;;4951724;29;20493;-74
2022/12/14 06:48:19;;;;;;;25.17;14.43;;;0.50;99.90;;;;;;4953438;29;20462;-74
2022/12/14 06:50:45;;;;;;;26.47;15.50;;;0.50;99.90;;;;;;4953144;28;20515;-75
2022/12/14 06:53:13;;;;;;;26.77;17.40;;;0.60;99.90;;;;;;4952267;29;20461;-75
2022/12/14 06:55:40;;;;;;;26.80;15.23;;;0.50;99.90;;;;;;4952975;29;20461;-74
2022/12/14 06:58:12;;;;;;;25.83;15.43;;;0.60;99.90;;;;;;4952443;29;21310;-74
2022/12/14 07:00:39;;;;;;;27.50;16.13;;;0.50;99.90;;;;;;4952348;28;20492;-74
2022/12/14 07:03:05;;;;;;;25.53;14.97;;;0.60;99.90;;;;;;4951347;29;21316;-74
2022/12/14 07:05:32;;;;;;;30.70;17.10;;;0.50;99.90;;;;;;4951044;29;20500;-75
2022/12/14 07:07:59;;;;;;;30.63;17.07;;;0.50;99.90;;;;;;4950631;29;20461;-74
2022/12/14 07:10:26;;;;;;;24.93;14.77;;;0.50;99.90;;;;;;4951502;28;20468;-74
2022/12/14 07:12:52;;;;;;;26.40;16.13;;;0.50;99.90;;;;;;4951315;29;21283;-74
2022/12/14 07:15:21;;;;;;;27.33;16.83;;;0.40;99.90;;;;;;4951362;29;20460;-74
2022/12/14 07:17:47;;;;;;;31.43;17.10;;;0.40;99.90;;;;;;4952547;28;20453;-74
2022/12/14 07:20:14;;;;;;;28.50;17.70;;;0.40;99.90;;;;;;4950722;29;20449;-74
2022/12/14 07:22:41;;;;;;;26.57;16.10;;;0.40;99.90;;;;;;4951879;29;20458;-76
2022/12/14 07:25:08;;;;;;;26.17;16.00;;;0.30;99.90;;;;;;4951419;29;20504;-73
2022/12/14 07:27:35;;;;;;;23.80;14.50;;;0.30;99.90;;;;;;4951065;29;20465;-73
2022/12/14 07:30:02;;;;;;;30.23;16.63;;;0.30;99.90;;;;;;4951412;29;20458;-74
2022/12/14 07:32:30;;;;;;;31.23;15.53;;;0.30;99.90;;;;;;4951538;29;20480;-74
2022/12/14 07:34:57;;;;;;;25.87;14.90;;;0.30;99.90;;;;;;4951270;29;20476;-73
2022/12/14 07:37:23;;;;;;;26.57;16.83;;;0.30;99.90;;;;;;4948959;29;20464;-73
2022/12/14 07:39:50;;;;;;;30.77;16.63;;;0.30;99.90;;;;;;4950216;29;20450;-74
2022/12/14 07:42:17;;;;;;;29.37;17.10;;;0.30;99.90;;;;;;4950624;29;20484;-74
2022/12/14 07:44:44;;;;;;;27.90;16.17;;;0.30;99.90;;;;;;4950460;29;20500;-75
2022/12/14 07:47:10;;;;;;;27.70;17.47;;;0.30;99.90;;;;;;4962607;28;20453;-75
2022/12/14 07:49:38;;;;;;;28.43;16.93;;;0.30;99.90;;;;;;4969750;28;20459;-75
2022/12/14 07:52:05;;;;;;;26.83;16.20;;;0.30;99.90;;;;;;4969713;28;20487;-74
2022/12/14 07:54:32;;;;;;;29.60;17.17;;;0.30;99.90;;;;;;4969371;28;20503;-73
2022/12/14 07:56:59;;;;;;;31.17;17.57;;;0.30;99.90;;;;;;4969358;28;20456;-74
2022/12/14 07:59:26;;;;;;;29.43;16.97;;;0.40;99.90;;;;;;4953614;28;20453;-75
2022/12/14 08:01:54;;;;;;;35.00;18.90;;;0.40;99.90;;;;;;4949311;28;20500;-74
2022/12/14 08:04:21;;;;;;;31.30;18.10;;;0.40;99.90;;;;;;4949195;29;20461;-74
2022/12/14 08:06:49;;;;;;;28.10;16.87;;;0.50;99.90;;;;;;4949438;29;20457;-75
2022/12/14 08:09:18;;;;;;;27.60;17.10;;;0.50;99.90;;;;;;4952023;28;20463;-74
2022/12/14 08:11:46;;;;;;;31.80;18.07;;;0.60;99.90;;;;;;4968767;28;20472;-74
2022/12/14 08:14:17;;;;;;;31.33;17.47;;;0.60;99.90;;;;;;4967524;28;20850;-73
2022/12/14 08:16:44;;;;;;;32.67;18.60;;;0.60;99.90;;;;;;4965990;28;21039;-74
2022/12/14 08:19:11;;;;;;;30.83;17.87;;;0.50;99.90;;;;;;4967083;28;20498;-74
2022/12/14 08:21:38;;;;;;;39.47;18.73;;;0.50;99.90;;;;;;4968128;28;21619;-74
2022/12/14 08:24:07;;;;;;;34.97;17.87;;;0.50;99.90;;;;;;4970135;28;20976;-74
2022/12/14 08:26:34;;;;;;;34.97;20.20;;;0.50;99.90;;;;;;4970200;28;20522;-74
2022/12/14 08:29:01;;;;;;;29.00;17.37;;;0.50;99.90;;;;;;4968676;28;20460;-74
2022/12/14 08:31:28;;;;;;;32.03;18.50;;;0.50;99.90;;;;;;4969294;28;20483;-73
2022/12/14 08:33:55;;;;;;;34.47;17.40;;;0.60;99.90;;;;;;4971601;28;20460;-74
2022/12/14 08:36:24;;;;;;;33.53;18.67;;;0.60;99.90;;;;;;4969936;28;20460;-74
2022/12/14 08:38:55;;;;;;;31.10;19.07;;;0.60;99.90;;;;;;4970163;28;20463;-74
2022/12/14 08:41:25;;;;;;;30.30;18.17;;;0.50;99.90;;;;;;4970895;28;20545;-74
2022/12/14 08:43:53;;;;;;;31.03;17.47;;;0.60;99.90;;;;;;4972736;28;20972;-74
2022/12/14 08:46:21;;;;;;;32.00;18.97;;;0.50;99.90;;;;;;4969114;28;20492;-74
2022/12/14 08:48:51;;;;;;;32.33;18.43;;;0.50;99.90;;;;;;4969054;28;20831;-74
2022/12/14 08:51:19;;;;;;;30.90;17.60;;;0.60;99.90;;;;;;4968889;28;21452;-74
2022/12/14 08:53:46;;;;;;;31.93;18.03;;;0.60;99.90;;;;;;4969009;28;20457;-74
2022/12/14 08:56:15;;;;;;;28.77;16.77;;;0.50;99.90;;;;;;4969028;28;20492;-74
2022/12/14 08:58:44;;;;;;;31.07;17.33;;;0.50;99.90;;;;;;4969851;28;20539;-74
2022/12/14 09:01:13;;;;;;;34.40;19.50;;;0.50;99.90;;;;;;4971330;28;21161;-74
2022/12/14 09:03:40;;;;;;;31.13;17.87;;;0.60;99.90;;;;;;4969379;28;20457;-74
2022/12/14 09:06:09;;;;;;;26.53;16.93;;;0.60;99.90;;;;;;4968516;28;20551;-74
2022/12/14 09:08:37;;;;;;;31.43;18.40;;;0.60;99.90;;;;;;4969328;28;20458;-74
2022/12/14 09:11:05;;;;;;;34.93;19.00;;;0.60;99.90;;;;;;4969343;28;20559;-74
2022/12/14 09:13:33;;;;;;;36.50;18.13;;;0.60;99.90;;;23.55;0.00;146826.19;4969547;28;20460;-74
2022/12/14 09:16:03;;;;;;;33.27;19.73;;;0.60;99.90;;;;;;4968031;28;20463;-74
2022/12/14 09:18:33;;;;;;;29.20;18.60;;;0.70;99.90;;;23.80;0.00;146480.59;4968443;28;20448;-74
2022/12/14 09:21:00;;;;;;;37.07;20.37;;;0.70;99.90;;;;;;4968120;28;21002;-74
2022/12/14 09:23:28;;;;;;;34.00;19.13;;;0.80;99.90;;;;;;4968676;28;20831;-74
2022/12/14 09:25:59;;;;;;;33.47;19.27;;;0.80;99.90;;;;;;4967990;28;20498;-74
2022/12/14 09:28:27;;;;;;;34.77;20.07;;;0.80;99.90;;;;;;4968526;28;20511;-74
2022/12/14 09:30:57;;;;;;;38.73;22.00;;;0.90;99.90;;;;;;4953489;28;20552;-74
2022/12/14 09:33:25;;;;;;;38.00;21.20;;;0.90;99.90;;;;;;4948632;29;20466;-74
2022/12/14 09:35:52;;;;;;;33.23;19.30;;;0.90;99.90;;;;;;4948579;29;20812;-74
2022/12/14 09:38:20;;;;;;;35.07;20.23;;;0.90;99.90;;;;;;4948451;29;20966;-74
2022/12/14 09:40:55;;;;;;;36.37;19.97;;;0.90;99.90;;;;;;4948317;28;21001;-74
2022/12/14 09:43:38;;;;;;;35.60;20.37;;;1.00;99.90;;;;;;4948808;29;20441;-74
2022/12/14 09:46:21;;;;;;;38.97;21.43;;;1.00;99.90;;;;;;4946480;29;20584;-74
2022/12/14 09:48:50;;;;;;;39.07;20.73;;;0.90;99.90;;;;;;4947438;29;20458;-74
2022/12/14 09:51:20;;;;;;;39.23;21.33;;;0.90;99.90;;;;;;4947593;28;20511;-74
2022/12/14 09:53:50;;;;;;;40.80;21.20;;;0.90;99.90;;;;;;4948318;29;20460;-74
2022/12/14 09:56:19;;;;;;;37.13;21.53;;;0.80;99.90;;;;;;4948059;29;20457;-74
2022/12/14 09:58:52;;;;;;;44.50;24.63;;;0.80;99.90;;;;;;4949080;29;20468;-74
2022/12/14 10:01:43;;;;;;;40.30;23.90;;;0.80;99.90;;;;;;4948965;28;20481;-74
2022/12/14 10:04:19;;;;;;;62.37;24.10;;;0.80;99.90;;;;;;4948596;29;20471;-73
2022/12/14 10:06:52;;;;;;;42.47;22.30;;;0.70;99.90;;;;;;4947543;29;20493;-74
2022/12/14 10:09:26;;;;;;;38.43;22.53;;;0.70;99.90;;;;;;4948657;29;20466;-74
2022/12/14 10:12:00;;;;;;;44.37;23.37;;;0.70;99.90;;;;;;4948441;28;20477;-74
2022/12/14 10:14:41;;;;;;;41.00;24.07;;;0.60;99.90;;;;;;4948801;29;20914;-74
2022/12/14 10:17:16;;;;;;;37.80;22.47;;;0.60;99.90;;;;;;4947458;29;20464;-74
2022/12/14 10:19:52;;;;;;;43.50;23.47;;;0.70;99.90;;;;;;4952428;29;20457;-74
2022/12/14 10:22:22;;;;;;;39.07;23.33;;;0.70;99.90;;;;;;4952700;28;20485;-74
2022/12/14 10:24:55;;;;;;;36.93;23.27;;;0.70;99.90;;;;;;4951450;29;20457;-74
2022/12/14 10:27:24;;;;;;;50.63;24.90;;;0.70;99.90;;;;;;4951496;29;20441;-74
2022/12/14 10:29:56;;;;;;;42.17;23.13;;;0.80;99.90;;;;;;4951825;29;20449;-74
2022/12/14 10:32:32;;;;;;;43.93;24.27;;;0.80;99.90;;;;;;4951963;28;20469;-74
2022/12/14 10:35:11;;;;;;;45.53;24.80;;;0.90;99.90;;;;;;4952001;29;20642;-74
2022/12/14 10:37:42;;;;;;;45.50;24.13;;;0.80;99.90;;;;;;4951311;29;20453;-73
2022/12/14 10:40:28;;;;;;;40.67;23.97;;;0.80;99.90;;;;;;4952039;29;20490;-74
2022/12/14 10:43:17;;;;;;;40.27;23.00;;;0.80;99.90;;;;;;4951662;29;21198;-74
2022/12/14 10:45:50;;;;;;;44.43;25.17;;;0.80;99.90;;;;;;4952118;29;20480;-74
2022/12/14 10:48:36;;;;;;;42.63;25.57;;;0.80;99.90;;;;;;4951682;29;20465;-74
2022/12/14 10:51:07;;;;;;;44.23;24.33;;;0.90;99.90;;;;;;4951861;28;21000;-74
2022/12/14 10:53:38;;;;;;;46.70;25.50;;;0.90;99.90;;;;;;4952344;29;20447;-74
2022/12/14 10:56:10;;;;;;;49.03;24.60;;;0.90;99.90;;;;;;4950701;29;20480;-73
2022/12/14 10:58:37;;;;;;;40.40;24.00;;;0.90;99.90;;;;;;4951657;29;20433;-73
2022/12/14 11:01:04;;;;;;;49.63;25.77;;;0.90;99.90;;;;;;4951339;28;20497;-74
2022/12/14 11:03:31;;;;;;;44.30;24.87;;;0.90;99.90;;;;;;4951458;29;20961;-74
2022/12/14 11:06:03;;;;;;;41.70;25.73;;;0.90;99.90;;;;;;4950826;29;20504;-74
2022/12/14 11:08:46;;;;;;;48.50;25.50;;;0.80;99.90;;;;;;4952130;29;21195;-74
2022/12/14 11:11:16;;;;;;;51.67;27.40;;;0.80;99.90;;;;;;4953441;28;20528;-74
2022/12/14 11:13:51;;;;;;;44.23;25.60;;;0.80;99.90;;;;;;4953244;29;20466;-75
2022/12/14 11:16:25;;;;;;;45.80;24.50;;;0.80;99.90;;;;;;4951521;29;20464;-74
2022/12/14 11:19:01;;;;;;;49.50;25.37;;;0.80;99.90;;;;;;4951599;29;20922;-74
2022/12/14 11:21:33;;;;;;;45.03;24.53;;;0.90;99.90;;;;;;4949803;28;20481;-74
2022/12/14 11:24:05;;;;;;;45.43;25.47;;;1.00;99.90;;;;;;4950773;29;20560;-74
2022/12/14 11:26:39;;;;;;;50.30;26.90;;;1.00;99.90;;;;;;4950603;29;20520;-74
2022/12/14 11:29:17;;;;;;;47.83;26.50;;;1.00;99.90;;;23.63;0.00;146826.19;4950329;28;20441;-75
2022/12/14 11:31:46;;;;;;;47.13;26.13;;;1.00;99.90;;;;;;4950662;28;20488;-75
2022/12/14 11:34:28;;;;;;;52.93;26.40;;;1.00;99.90;;;-143.14;0.00;146826.19;4950654;29;20470;-76
2022/12/14 11:36:55;;;;;;;43.07;24.90;;;1.00;99.90;;;;;;4949920;29;20438;-74
2022/12/14 11:39:24;;;;;;;56.63;30.57;;;1.00;99.90;;;;;;4950282;29;20456;-74
2022/12/14 11:42:00;;;;;;;65.27;33.57;;;1.00;99.90;;;;;;4950060;28;20485;-75
2022/12/14 11:44:30;;;;;;;61.80;32.63;;;1.00;99.90;;;;;;4949928;29;20770;-73
2022/12/14 11:47:02;;;;;;;57.30;32.60;;;1.10;99.90;;;;;;4948992;28;20853;-74
2022/12/14 11:49:33;;;;;;;51.27;28.03;;;1.20;99.90;;;;;;4949704;29;20821;-73
2022/12/14 11:52:12;;;;;;;51.40;26.60;;;1.20;99.90;;;;;;4949867;28;20477;-74
2022/12/14 11:54:41;;;;;;;49.70;25.17;;;1.20;99.90;;;;;;4950188;29;20468;-75
2022/12/14 11:57:22;;;;;;;43.47;26.30;;;1.10;99.90;;;;;;4948843;29;20802;-73
2022/12/14 11:59:52;;;;;;;42.57;24.03;;;1.10;99.90;;;;;;4950134;29;20450;-73
2022/12/14 12:02:27;;;;;;;48.97;25.10;;;1.20;99.90;;;;;;4949352;28;20489;-72
2022/12/14 12:04:58;;;;;;;44.03;25.10;;;1.20;99.90;;;;;;4949351;29;20471;-74
2022/12/14 12:07:32;;;;;;;45.10;25.17;;;1.20;99.90;;;;;;4948855;29;20886;-74
2022/12/14 12:10:15;;;;;;;50.60;25.60;;;1.20;99.90;;;;;;4949796;29;20456;-73
2022/12/14 12:12:51;;;;;;;46.33;25.43;;;1.20;99.90;;;;;;4949867;29;20445;-73
2022/12/14 12:15:23;;;;;;;45.23;25.20;;;1.20;99.90;;;;;;4949762;29;20468;-73
2022/12/14 12:17:59;;;;;;;45.77;23.57;;;1.30;99.90;;;;;;4949496;29;20461;-74
2022/12/14 12:20:34;;;;;;;46.97;26.53;;;1.30;99.90;;;;;;4949064;28;20501;-74
2022/12/14 12:23:07;;;;;;;49.23;26.13;;;1.30;99.90;;;;;;4949497;29;20434;-75
2022/12/14 12:25:37;;;;;;;44.10;25.60;;;1.30;99.90;;;;;;4948906;29;20877;-73
2022/12/14 12:28:14;;;;;;;58.43;27.23;;;1.30;99.90;;;;;;4948552;29;20458;-74
2022/12/14 12:30:44;;;;;;;49.97;27.57;;;1.30;99.90;;;;;;4948871;28;20496;-74
2022/12/14 12:33:22;;;;;;;43.50;24.93;;;1.30;99.90;;;;;;4949322;29;20458;-74
2022/12/14 12:35:52;;;;;;;43.43;25.43;;;1.30;99.90;;;;;;4949973;29;20457;-74
2022/12/14 12:38:26;;;;;;;44.67;25.03;;;1.30;99.90;;;;;;4950739;29;20458;-74
2022/12/14 12:41:02;;;;;;;48.93;25.20;;;1.30;99.90;;;;;;4950182;28;20668;-74
2022/12/14 12:43:35;;;;;;;55.60;25.40;;;1.30;99.90;;;;;;4950276;29;20537;-76
2022/12/14 12:46:06;;;;;;;46.17;23.93;;;1.30;99.90;;;;;;4950164;29;20985;-75
2022/12/14 12:48:38;;;;;;;46.57;25.30;;;1.30;99.90;;;;;;4951331;29;20465;-66
2022/12/14 12:51:11;;;;;;;42.67;23.50;;;1.30;99.90;;;;;;4948457;28;20982;-65
2022/12/14 12:53:42;;;;;;;48.53;27.10;;;1.40;99.90;;;;;;4950567;29;20457;-75
2022/12/14 12:56:16;;;;;;;43.97;25.67;;;1.40;99.90;;;;;;4949004;29;20453;-74
2022/12/14 12:58:45;;;;;;;55.03;25.13;;;1.40;99.90;;;;;;4948937;29;20836;-75
2022/12/14 13:01:22;;;;;;;49.83;27.17;;;1.50;99.90;;;;;;4948584;28;20857;-74
2022/12/14 13:03:52;;;;;;;46.97;26.17;;;1.40;99.90;;;;;;4947842;29;20876;-74
2022/12/14 13:06:24;;;;;;;48.07;25.97;;;1.40;99.90;;;;;;4947723;29;20514;-74
2022/12/14 13:08:57;;;;;;;52.67;26.37;;;1.30;99.90;;;;;;4948377;29;20472;-74
2022/12/14 13:11:30;;;;;;;49.73;26.97;;;1.30;99.90;;;;;;4947810;28;20482;-73
2022/12/14 13:14:02;;;;;;;54.80;28.17;;;1.30;99.90;;;;;;4948940;29;20814;-73
2022/12/14 13:16:33;;;;;;;53.80;26.83;;;1.30;99.90;;;;;;4948084;29;20450;-74
2022/12/14 13:19:08;;;;;;;106.33;54.40;;;1.30;99.90;;;;;;4948929;29;20457;-73
2022/12/14 13:21:39;;;;;;;50.87;28.63;;;1.30;99.90;;;;;;4948332;28;20487;-73
2022/12/14 13:24:11;;;;;;;79.83;35.60;;;1.20;99.90;;;;;;4948141;29;20452;-74
2022/12/14 13:27:15;;;;;;;55.93;30.23;;;1.10;99.90;;;;;;4946669;29;20493;-74
2022/12/14 13:29:54;;;;;;;112.90;49.70;;;1.00;99.90;;;;;;4948576;29;20485;-73
2022/12/14 13:32:40;;;;;;;60.43;30.00;;;1.00;99.90;;;;;;4948349;28;20477;-73
2022/12/14 13:35:20;;;;;;;55.70;28.23;;;1.00;99.90;;;;;;4947821;29;20976;-73
2022/12/14 13:38:04;;;;;;;64.60;30.10;;;1.10;99.90;;;;;;4947783;29;20464;-73
2022/12/14 13:41:27;;;;;;;61.10;30.70;;;1.00;99.90;;;;;;4947712;28;21011;-74
2022/12/14 13:44:13;;;;;;;57.00;29.00;;;1.00;99.90;;;;;;4879124;29;20476;-73
2022/12/14 13:46:42;;;;;;;61.07;31.20;;;1.00;99.90;;;;;;4887925;29;20504;-75
2022/12/14 13:49:19;;;;;;;59.50;31.57;;;1.00;99.90;;;;;;4932406;29;21014;-74
2022/12/14 13:51:48;;;;;;;59.03;31.03;;;1.00;99.90;;;;;;4947407;28;20838;-73
2022/12/14 13:54:22;;;;;;;60.50;30.20;;;0.90;99.90;;;;;;4947522;28;20461;-73
2022/12/14 13:56:49;;;;;;;65.07;32.17;;;0.80;99.90;;;;;;4945544;29;20930;-74
2022/12/14 13:59:29;;;;;;;59.77;30.97;;;0.80;99.90;;;;;;4946877;29;20457;-73
2022/12/14 14:01:59;;;;;;;70.10;34.20;;;0.90;99.90;;;;;;4946515;28;21344;-73
2022/12/14 14:04:29;;;;;;;66.37;30.93;;;1.00;99.90;;;;;;4947481;28;20498;-75
2022/12/14 14:07:17;;;;;;;60.63;32.57;;;1.10;99.90;;;;;;4946672;28;20504;-73
2022/12/14 14:10:00;;;;;;;59.83;30.43;;;1.10;99.90;;;;;;4940819;28;20465;-74
2022/12/14 14:12:43;;;;;;;66.73;31.43;;;1.10;99.90;;;;;;4946691;28;21231;-75
2022/12/14 14:15:45;;;;;;;67.10;34.57;;;1.10;99.90;;;;;;4947486;29;20542;-74
2022/12/14 14:18:18;;;;;;;65.70;32.73;;;1.00;99.90;;;;;;4946655;29;20483;-73
2022/12/14 14:20:47;;;;;;;64.53;33.83;;;1.00;99.90;;;;;;4947429;28;20488;-74
2022/12/14 14:23:31;;;;;;;62.00;32.87;;;0.90;99.90;;;;;;4946701;29;21373;-73
2022/12/14 14:26:19;;;;;;;54.23;29.30;;;0.90;99.90;;;;;;4947339;29;20445;-74
2022/12/14 14:28:48;;;;;;;61.70;31.00;;;0.90;99.90;;;;;;4947820;29;20452;-73
2022/12/14 14:31:15;;;;;;;62.73;32.50;;;0.80;99.90;;;;;;4946703;28;20484;-73
2022/12/14 14:33:45;;;;;;;65.80;32.47;;;0.80;99.90;;;;;;4948290;28;20504;-73
2022/12/14 14:36:21;;;;;;;69.03;32.60;;;0.70;99.90;;;;;;4947310;29;20560;-76
2022/12/14 14:38:49;;;;;;;63.97;33.40;;;0.60;99.90;;;;;;4948325;29;20510;-73
2022/12/14 14:41:23;;;;;;;61.70;32.53;;;0.60;99.90;;;;;;4947596;28;20488;-73
2022/12/14 14:43:53;;;;;;;66.57;33.37;;;0.50;99.90;;;;;;4947326;29;20448;-72
2022/12/14 14:46:31;;;;;;;68.73;33.17;;;0.40;99.90;;;;;;4947180;29;20446;-73
2022/12/14 14:49:00;;;;;;;63.23;30.40;;;0.40;99.90;;;;;;4947990;29;21009;-75
2022/12/14 14:51:30;;;;;;;69.63;34.70;;;0.20;99.90;;;;;;4947635;28;20473;-76
2022/12/14 14:54:30;;;;;;;68.77;34.27;;;0.30;99.90;;;;;;4947972;28;20958;-75
2022/12/14 14:57:01;;;;;;;66.97;31.60;;;0.30;99.90;;;;;;4946927;29;20459;-74
2022/12/14 14:59:42;;;;;;;64.10;33.60;;;0.30;99.90;;;;;;4947235;29;20465;-73
2022/12/14 15:02:33;;;;;;;62.90;31.07;;;0.40;99.90;;;;;;4947516;28;20555;-73
2022/12/14 15:05:03;;;;;;;63.97;32.93;;;0.30;99.90;;;;;;4948431;28;20448;-74
2022/12/14 15:07:31;;;;;;;70.93;34.43;;;0.20;99.90;;;;;;4950199;29;20484;-74
2022/12/14 15:10:06;;;;;;;66.80;35.20;;;0.20;99.90;;;;;;4950373;29;20457;-74
2022/12/14 15:12:40;;;;;;;67.97;33.30;;;0.20;99.90;;;;;;4950678;28;20508;-74
2022/12/14 15:15:17;;;;;;;66.70;33.80;;;0.20;99.90;;;;;;4950007;29;20535;-73
2022/12/14 15:17:44;;;;;;;79.10;34.60;;;0.20;99.90;;;;;;4949877;29;20449;-73
2022/12/14 15:20:24;;;;;;;60.40;33.90;;;0.20;99.90;;;;;;4950402;29;20950;-73
2022/12/14 15:22:52;;;;;;;72.90;34.90;;;0.10;99.90;;;;;;4950211;29;20928;-73
2022/12/14 15:25:23;;;;;;;72.43;35.33;;;0.10;99.90;;;;;;4949867;29;20453;-73
2022/12/14 15:27:50;;;;;;;104.80;49.93;;;0.10;99.90;;;;;;4949427;29;21237;-74
2022/12/14 15:30:22;;;;;;;70.17;35.97;;;0.20;99.90;;;;;;4949828;28;20468;-73
2022/12/14 15:32:54;;;;;;;74.23;39.20;;;0.30;99.90;;;;;;4950234;29;20854;-73
2022/12/14 15:35:26;;;;;;;75.00;37.20;;;0.20;99.90;;;;;;4949705;29;20460;-73
2022/12/14 15:37:55;;;;;;;66.90;34.90;;;0.20;99.90;;;;;;4949360;29;21324;-73
2022/12/14 15:40:25;;;;;;;70.93;34.47;;;0.20;99.90;;;;;;4948740;28;20454;-73
2022/12/14 15:42:54;;;;;;;68.73;34.60;;;0.10;99.90;;;;;;4949589;29;20775;-73
2022/12/14 15:45:23;;;;;;;67.20;33.77;;;0.10;99.90;;;;;;4949535;29;20469;-73
2022/12/14 15:47:51;;;;;;;73.70;34.00;;;0.10;99.90;;;;;;4948552;29;20572;-74
2022/12/14 15:50:24;;;;;;;63.43;31.20;;;0.00;99.90;;;;;;4949316;28;20460;-73
2022/12/14 15:52:54;;;;;;;69.33;33.00;;;0.00;99.90;;;;;;4949233;29;20979;-73
2022/12/14 15:55:27;;;;;;;66.93;33.40;;;0.00;99.90;;;;;;4949203;29;20450;-73
2022/12/14 15:57:54;;;;;;;73.70;35.17;;;-0.10;99.90;;;;;;4948780;29;20438;-73
2022/12/14 16:00:21;;;;;;;68.27;33.07;;;-0.10;99.90;;;;;;4949077;28;20626;-74
2022/12/14 16:02:48;;;;;;;72.10;35.53;;;0.00;99.90;;;;;;4949191;28;20469;-71
2022/12/14 16:05:20;;;;;;;76.07;34.60;;;0.00;99.90;;;;;;4949305;29;20459;-71
2022/12/14 16:07:51;;;;;;;68.20;32.50;;;0.00;99.90;;;;;;4948681;29;20781;-71
2022/12/14 16:10:25;;;;;;;65.43;32.67;;;-0.10;99.90;;;;;;4948703;28;20461;-71
2022/12/14 16:12:58;;;;;;;70.97;32.67;;;-0.10;99.90;;;;;;4949478;29;20461;-72
2022/12/14 16:15:27;;;;;;;75.70;36.57;;;-0.20;99.90;;;;;;4948446;28;20778;-72
2022/12/14 16:17:57;;;;;;;68.60;33.80;;;-0.10;99.90;;;;;;4948362;29;20453;-72
2022/12/14 16:20:25;;;;;;;68.90;33.43;;;-0.10;99.90;;;;;;4948864;28;20500;-69
2022/12/14 16:23:05;;;;;;;74.10;33.30;;;-0.20;99.90;;;;;;4949163;29;20465;-70
2022/12/14 16:25:34;;;;;;;70.13;33.40;;;-0.20;99.90;;;;;;4947639;29;20437;-70
2022/12/14 16:28:20;;;;;;;72.87;34.13;;;-0.20;99.90;;;;;;4946619;29;20515;-71
2022/12/14 16:30:56;;;;;;;71.67;33.90;;;-0.20;99.90;;;;;;4948371;28;20481;-71
2022/12/14 16:33:24;;;;;;;68.53;33.90;;;-0.30;99.90;;;;;;4948407;29;20457;-71
2022/12/14 16:36:03;;;;;;;72.63;35.90;;;-0.40;99.90;;;;;;4948101;29;20621;-71
2022/12/14 16:38:35;;;;;;;74.60;34.33;;;-0.40;99.90;;;;;;4948242;29;20489;-71
2022/12/14 16:41:04;;;;;;;75.87;34.50;;;-0.40;99.90;;;;;;4949249;28;20477;-71
2022/12/14 16:43:33;;;;;;;75.27;35.07;;;-0.40;99.90;;;;;;4949138;29;20481;-71
2022/12/14 16:46:12;;;;;;;64.93;32.40;;;-0.40;99.90;;;;;;4948426;29;20457;-71
2022/12/14 16:48:42;;;;;;;64.63;30.70;;;-0.40;99.90;;;;;;4948693;29;20556;-74
2022/12/14 16:51:24;;;;;;;65.00;32.03;;;-0.50;99.90;;;;;;4948368;28;20469;-73
2022/12/14 16:53:56;;;;;;;70.37;34.67;;;-0.40;99.90;;;;;;4955545;28;20445;-73
2022/12/14 16:56:25;;;;;;;65.57;32.47;;;-0.50;99.90;;;;;;4967271;28;20453;-72
2022/12/14 16:58:54;;;;;;;73.73;33.53;;;-0.50;99.90;;;;;;4967830;28;20448;-73
2022/12/14 17:01:22;;;;;;;65.60;32.80;;;-0.50;99.90;;;;;;4960361;28;20471;-73
2022/12/14 17:03:58;;;;;;;69.23;32.07;;;-0.40;99.90;;;;;;4937925;29;20473;-74
2022/12/14 17:06:36;;;;;;;64.47;31.87;;;-0.40;99.90;;;;;;4937588;29;20446;-74
2022/12/14 17:09:05;;;;;;;65.63;33.13;;;-0.40;99.90;;;;;;4938142;29;20485;-74
2022/12/14 17:11:33;;;;;;;60.60;30.60;;;-0.50;99.90;;;;;;4937366;28;20475;-75
2022/12/14 17:14:00;;;;;;;65.70;33.53;;;-0.50;99.90;;;;;;4936213;29;20544;-73
2022/12/14 17:16:27;;;;;;;69.77;32.97;;;-0.50;99.90;;;;;;4928766;29;20560;-74
2022/12/14 17:18:53;;;;;;;72.13;34.43;;;-0.40;99.90;;;;;;4929081;29;20845;-74
2022/12/14 17:21:24;;;;;;;65.87;33.40;;;-0.50;99.90;;;;;;4928074;29;20485;-74
2022/12/14 17:23:51;;;;;;;63.80;31.90;;;-0.40;99.90;;;;;;4929071;29;20445;-75
2022/12/14 17:26:24;;;;;;;63.43;32.20;;;-0.40;99.90;;;;;;4927960;29;20454;-73
2022/12/14 17:28:53;;;;;;;59.77;30.70;;;-0.40;99.90;;;;;;4928556;29;20549;-75
2022/12/14 17:31:22;;;;;;;70.37;32.43;;;-0.40;99.90;;;;;;4928042;29;20481;-75
2022/12/14 17:33:49;;;;;;;61.53;31.47;;;-0.40;99.90;;;;;;4928741;29;20465;-73
2022/12/14 17:36:16;;;;;;;60.77;31.77;;;-0.50;99.90;;;;;;4928576;29;20469;-74
2022/12/14 17:38:43;;;;;;;62.00;30.67;;;-0.50;99.90;;;;;;4929294;29;20461;-75
2022/12/14 17:41:24;;;;;;;62.10;31.00;;;-0.50;99.90;;;;;;4928710;29;20529;-73
2022/12/14 17:43:54;;;;;;;62.00;29.70;;;-0.40;99.90;;;;;;4928932;29;20619;-73
2022/12/14 17:46:22;;;;;;;60.30;29.40;;;-0.40;99.90;;;;;;4928222;29;20457;-74
2022/12/14 17:48:49;;;;;;;58.00;30.33;;;-0.40;99.90;;;;;;4928559;29;20517;-74
2022/12/14 17:51:22;;;;;;;59.97;31.33;;;-0.40;99.90;;;;;;4928912;29;20486;-76
2022/12/14 17:53:49;;;;;;;63.00;31.07;;;-0.40;99.90;;;;;;4928769;29;20476;-75
2022/12/14 17:56:16;;;;;;;67.13;33.00;;;-0.30;99.90;;;;;;4927979;29;21412;-74